Latest Coastal Weather Observations for Cape Bruny AWS

IDT60701

Issued at 5:03 am EST Tuesday 25 July 2017 (issued every 10 minutes, with the page automatically refreshed every 10 minutes)

About coastal observations | Map of coastal stations | Coastal observations for TAS | Marine services | Other Formats
Station Details ID: 094198 Name: CAPE BRUNY (CAPE BRUNY) Lat: -43.49 Lon: 147.14 Height: 59.7 m
Data from the previous 72 hours. | See also: Recent months at Cape Bruny AWS
Date/Time
EST
Temp
°C
Wind Pressure Rain since
9am
mm
Weather Cloud Vis
km
Sea
Height
m
Swell
Dir  Spd
kts
Gust
kts
hPa Trend Height
m
Period
s
Dir
25/05:00am 8.4 NNW 12 16 1007.5 - 0.0 - - - - - - -
25/04:30am 8.2 N 7 14 1007.9 - 0.0 - - - - - - -
25/04:00am 7.6 N 5 8 1008.0 - 0.0 - - - - - - -
25/03:30am 8.4 NW 10 15 1008.5 - 0.0 - - - - - - -
25/03:00am 8.1 N 7 9 1008.9 - 0.0 - - - - - - -
25/02:30am 8.5 NW 13 18 1009.0 - 0.0 - - - - - - -
25/02:00am 8.2 NNW 8 13 1009.1 - 0.0 - - - - - - -
25/01:30am 8.5 NW 13 18 1009.2 - 0.0 - - - - - - -
25/01:00am 8.4 NW 12 16 1009.4 - 0.0 - - - - - - -
25/12:30am 8.3 NW 13 18 1009.7 - 0.0 - - - - - - -
25/12:00am 8.5 WNW 15 25 1009.5 - 0.0 - - - - - - -
 
Date/Time
EST
Temp
°C
Wind Pressure Rain since
9am
mm
Weather Cloud Vis
km
Sea
Height
m
Swell
Dir  Spd
kts
Gust
kts
hPa Trend Height
m
Period
s
Dir
24/11:57pm 8.6 WNW 15 25 1009.6 - 0.0 - - - - - - -
24/11:30pm 8.3 NW 15 19 1009.6 - 0.0 - - - - - - -
24/11:00pm 8.0 NW 16 21 1009.7 - 0.0 - - - - - - -
24/10:30pm 8.0 NW 18 23 1009.9 - 0.0 - - - - - - -
24/10:00pm 7.7 NW 17 24 1009.8 - 0.0 - - - - - - -
24/09:30pm 7.9 NW 19 26 1009.8 - 0.0 - - - - - - -
24/09:05pm 8.0 NW 18 29 1009.8 - 0.0 - - - - - - -
24/09:00pm 8.0 NW 16 23 1010.0 - 0.0 - - - - - - -
24/08:30pm 8.0 NW 16 23 1010.1 - 0.0 - - - - - - -
24/08:00pm 7.6 NW 17 24 1010.3 - 0.0 - - - - - - -
24/07:30pm 7.7 WNW 18 27 1010.2 - 0.0 - - - - - - -
24/07:27pm 7.7 NW 17 27 1010.2 - 0.0 - - - - - - -
24/07:00pm 7.6 NW 19 24 1010.1 - 0.0 - - - - - - -
24/06:30pm 7.6 NW 18 25 1010.2 - 0.0 - - - - - - -
24/06:00pm 7.8 WNW 17 24 1010.1 - 0.0 - - - - - - -
24/05:30pm 7.6 NW 19 26 1010.1 - 0.0 - - - - - - -
24/05:00pm 7.9 NW 18 25 1009.8 - 0.0 - - - - - - -
24/04:30pm 8.5 WNW 17 23 1009.7 - 0.0 - - - - - - -
24/04:00pm 9.5 WNW 23 33 1009.5 - 0.0 - - - - - - -
24/03:52pm 9.2 WNW 23 33 1009.4 - 0.0 - - - - - - -
24/03:30pm 9.6 WNW 18 22 1009.3 - 0.0 - - - - - - -
24/03:00pm 9.7 WNW 24 31 1009.3 - 0.0 - - - - - - -
24/02:31pm 9.0 WNW 21 31 1009.0 - 0.0 - - - - - - -
24/02:30pm 9.1 WNW 21 29 1009.0 - 0.0 - - - - - - -
24/02:14pm 10.2 WNW 23 33 1009.0 - 0.0 - - - - - - -
24/02:00pm 10.2 WNW 22 30 1009.0 - 0.0 - - - - - - -
24/01:30pm 10.3 WNW 23 29 1009.2 - 0.0 - - - - - - -
24/01:00pm 9.5 WNW 25 35 1009.2 - 0.0 - - - - - - -
24/12:43pm 10.3 WNW 21 32 1009.5 - 0.0 - - - - - - -
24/12:30pm 9.7 W 23 30 1009.6 - 0.0 - - - - - - -
24/12:19pm 10.2 WNW 21 31 1009.6 - 0.0 - - - - - - -
24/12:00pm 10.0 WNW 19 25 1009.7 - 0.0 - - - - - - -
24/11:30am 8.7 WNW 24 32 1010.2 - 0.0 - - - - - - -
24/11:00am 8.9 WNW 20 33 1010.1 - 0.0 - - - - - - -
24/10:44am 9.8 WNW 21 31 1010.2 - 0.0 - - - - - - -
24/10:30am 9.2 WNW 21 28 1010.1 - 0.0 - - - - - - -
24/10:00am 8.5 NW 19 30 1009.9 - 0.0 - - - - - - -
24/09:57am 8.7 NW 18 30 1010.1 - 0.0 - - - - - - -
24/09:30am 9.1 WNW 18 23 1010.1 - 0.0 - - - - - - -
24/09:00am 8.5 WNW 18 24 1009.7 - 3.6 - - - - - - -
24/08:30am 7.9 WNW 19 25 1009.4 - 3.6 - - - - - - -
24/08:00am 7.4 WNW 19 26 1009.1 - 3.6 - - - - - - -
24/07:30am 7.5 WNW 17 23 1008.8 - 3.6 - - - - - - -
24/07:00am 7.5 WNW 19 29 1008.3 - 3.6 - - - - - - -
24/06:47am 7.4 WNW 17 30 1008.1 - 3.6 - - - - - - -
24/06:30am 7.3 NW 16 21 1008.0 - 3.6 - - - - - - -
24/06:00am 7.3 WNW 18 25 1007.7 - 3.6 - - - - - - -
24/05:30am 6.9 WNW 19 26 1007.5 - 3.6 - - - - - - -
24/05:00am 6.9 WNW 17 23 1007.3 - 3.6 - - - - - - -
24/04:30am 6.7 WNW 17 21 1007.3 - 3.6 - - - - - - -
24/04:00am 6.8 WNW 19 25 1007.3 - 3.6 - - - - - - -
24/03:42am 6.9 WNW 15 25 1007.3 - 3.6 - - - - - - -
24/03:30am 6.7 WNW 17 23 1007.2 - 3.6 - - - - - - -
24/03:00am 6.9 WNW 19 25 1007.4 - 3.6 - - - - - - -
24/02:30am 7.0 WNW 19 24 1007.5 - 3.6 - - - - - - -
24/02:00am 6.6 WNW 18 24 1007.2 - 3.6 - - - - - - -
24/01:30am 6.6 WNW 18 26 1007.1 - 3.6 - - - - - - -
24/01:00am 6.3 WNW 19 24 1007.2 - 3.6 - - - - - - -
24/12:30am 6.3 WNW 16 25 1007.4 - 3.6 - - - - - - -
24/12:26am 6.4 WNW 15 25 1007.4 - 3.6 - - - - - - -
24/12:00am 6.2 WNW 16 22 1007.4 - 3.6 - - - - - - -
 
Date/Time
EST
Temp
°C
Wind Pressure Rain since
9am
mm
Weather Cloud Vis
km
Sea
Height
m
Swell
Dir  Spd
kts
Gust
kts
hPa Trend Height
m
Period
s
Dir
23/11:30pm 5.9 WNW 15 19 1007.3 - 3.6 - - - - - - -
23/11:00pm 5.9 WNW 19 24 1007.6 - 3.6 - - - - - - -
23/10:30pm 6.3 WNW 18 24 1007.3 - 3.6 - - - - - - -
23/10:00pm 6.0 WNW 15 21 1007.4 - 3.6 - - - - - - -
23/09:30pm 6.2 W 16 20 1007.4 - 3.6 - - - - - - -
23/09:00pm 5.9 W 21 26 1007.0 - 3.6 - - - - - - -
23/08:30pm 5.9 W 18 23 1006.7 - 3.6 - - - - - - -
23/08:00pm 5.6 W 27 37 1006.4 - 3.6 - - - - - - -
23/07:30pm 5.8 W 25 37 1006.0 - 3.6 - - - - - - -
23/07:21pm 6.0 W 21 33 1005.9 - 3.6 - - - - - - -
23/07:00pm 5.6 W 25 32 1005.6 - 3.6 - - - - - - -
23/06:44pm 6.4 WSW 24 39 1005.4 - 3.6 - - - - - - -
23/06:30pm 6.5 W 23 31 1005.4 - 3.6 - - - - - - -
23/06:00pm 6.1 WSW 25 32 1005.1 - 3.6 - - - - - - -
23/05:39pm 6.3 W 18 28 1005.0 - 3.6 - - - - - - -
23/05:30pm 6.4 W 20 26 1004.9 - 3.6 - - - - - - -
23/05:00pm 6.0 WSW 23 32 1004.1 - 3.6 - - - - - - -
23/04:54pm 5.8 W 21 32 1004.1 - 3.6 - - - - - - -
23/04:30pm 6.0 WSW 23 31 1003.8 - 3.4 - - - - - - -
23/04:00pm 6.0 WSW 21 31 1003.5 - 3.0 - - - - - - -
23/03:30pm 6.1 WSW 20 33 1003.0 - 2.8 - - - - - - -
23/03:14pm 6.6 SW 19 29 1002.6 - 2.8 - - - - - - -
23/03:00pm 6.4 SW 21 30 1002.4 - 2.8 Recent precip. - - - - - -
23/02:33pm 6.8 SW 18 28 1001.6 - 2.8 - - - - - - -
23/02:30pm 6.9 SW 20 29 1001.6 - 2.6 - - - - - - -
23/02:20pm 6.8 SW 19 29 1001.5 - 2.6 - - - - - - -
23/02:00pm 7.2 SW 19 27 1001.2 - 2.4 - - - - - - -
23/01:50pm 6.9 SW 17 27 1001.1 - 2.4 - - - - - - -
23/01:30pm 7.5 SW 18 27 1000.8 - 2.0 - - - - - - -
23/01:10pm 7.6 SW 18 28 1000.5 - 2.0 - - - - - - -
23/01:00pm 7.5 SW 21 28 1000.5 - 2.0 - - - - - - -
23/12:51pm 8.1 SW 17 28 1000.4 - 1.8 - - - - - - -
23/12:30pm 8.5 SW 15 23 1000.2 - 1.6 - - - - - - -
23/12:23pm 8.4 SW 15 25 1000.1 - 1.6 - - - - - - -
23/12:00pm 8.0 SW 15 24 999.9 - 1.6 - - - - - - -
23/11:30am 8.7 SW 14 24 999.6 - 1.6 - - - - - - -
23/11:02am 8.7 SW 17 27 999.2 - 1.6 - - - - - - -
23/11:00am 8.8 SW 18 26 999.2 - 1.6 - - - - - - -
23/10:47am 8.9 SW 18 28 999.0 - 1.4 - - - - - - -
23/10:39am 9.0 W 19 25 998.9 - 1.4 - - - - - - -
23/10:30am 8.7 W 20 28 998.5 - 0.6 - - - - - - -
23/10:24am 9.2 W 15 25 998.4 - 0.2 - - - - - - -
23/10:00am 8.8 W 15 22 998.5 - 0.2 - - - - - - -
23/09:30am 8.6 NW 12 17 998.0 - 0.0 - - - - - - -
23/09:00am 7.6 NNW 15 20 997.9 - 10.0 - - - - - - -
23/08:30am 7.3 NW 18 24 997.6 - 10.0 - - - - - - -
23/08:00am 7.4 NW 17 23 997.6 - 10.0 - - - - - - -
23/07:53am 7.5 NW 16 21 997.6 - 9.8 - - - - - - -
23/07:30am 7.5 W 20 24 997.5 - 9.0 - - - - - - -
23/07:10am 8.2 WSW 26 37 997.0 - 7.6 - - - - - - -
23/07:00am 8.3 W 20 29 997.0 - 7.2 - - - - - - -
23/06:59am 8.3 W 19 29 997.0 - 7.2 - - - - - - -
23/06:46am 8.2 WSW 9 23 997.1 - 7.0 - - - - - - -
23/06:30am 8.4 NNW 7 11 996.7 - 7.0 - - - - - - -
23/06:00am 8.3 NW 14 19 996.6 - 7.0 Recent precip. - - - - - -
23/05:30am 7.8 NW 17 23 996.2 - 7.0 - - - - - - -
23/05:00am 8.1 WNW 21 29 996.8 - 6.8 - - - - - - -
23/04:30am 9.0 WNW 19 26 997.2 - 5.6 - - - - - - -
23/04:24am 9.2 WNW 22 29 997.1 - 5.2 - - - - - - -
23/04:00am 10.4 W 18 26 996.9 - 3.4 - - - - - - -
23/03:58am 10.9 WNW 18 26 996.8 - 3.4 - - - - - - -
23/03:39am 11.1 WNW 20 30 996.2 - 3.4 - - - - - - -
23/03:30am 11.2 NW 19 28 995.9 - 3.4 - - - - - - -
23/03:12am 11.2 WNW 18 28 996.3 - 3.4 - - - - - - -
23/03:00am 10.8 NW 16 22 996.4 - 3.4 - - - - - - -
23/02:30am 10.8 NW 20 25 996.6 - 3.4 - - - - - - -
23/02:00am 10.8 NW 17 23 996.6 - 3.4 - - - - - - -
23/01:30am 10.4 NW 11 18 997.2 - 3.4 - - - - - - -
23/01:00am 10.0 NNW 12 18 997.3 - 3.4 - - - - - - -
23/12:42am 10.8 NW 15 24 998.7 - 2.8 - - - - - - -
23/12:30am 10.9 NNW 11 15 998.3 - 0.8 - - - - - - -
23/12:00am 11.6 NNE 8 13 997.7 - 0.0 - - - - - - -
 
Date/Time
EST
Temp
°C
Wind Pressure Rain since
9am
mm
Weather Cloud Vis
km
Sea
Height
m
Swell
Dir  Spd
kts
Gust
kts
hPa Trend Height
m
Period
s
Dir
22/11:30pm 11.5 NNE 9 16 998.1 - 0.0 - - - - - - -
22/11:00pm 11.2 NE 9 13 998.4 - 0.0 - - - - - - -
22/10:30pm 11.0 NNE 9 12 999.1 - 0.0 - - - - - - -
22/10:00pm 11.3 NNE 11 17 999.4 - 0.0 - - - - - - -
22/09:30pm 11.3 NNE 11 16 999.7 - 0.0 - - - - - - -
22/09:00pm 11.8 NNE 9 14 1000.3 - 0.0 - - - - - - -
22/08:30pm 11.8 NNE 9 15 1000.7 - 0.0 - - - - - - -
22/08:00pm 12.1 NNE 12 18 1001.2 - 0.0 - - - - - - -
22/07:30pm 12.0 N 9 15 1001.6 - 0.0 - - - - - - -
22/07:00pm 11.7 N 10 17 1002.1 - 0.0 - - - - - - -
22/06:30pm 11.6 NNW 11 18 1002.4 - 0.0 - - - - - - -
22/06:00pm 11.6 NNW 12 18 1002.9 - 0.0 - - - - - - -
22/05:30pm 12.1 NNW 12 17 1002.8 - 0.0 - - - - - - -
22/05:00pm 11.9 NNW 12 17 1002.9 - 0.0 - - - - - - -
22/04:30pm 12.1 NNW 12 17 1003.3 - 0.0 - - - - - - -
22/04:00pm 12.3 NNW 12 16 1003.5 - 0.0 - - - - - - -
22/03:30pm 12.3 NNW 11 16 1003.7 - 0.0 - - - - - - -
22/03:00pm 12.5 NW 14 19 1003.9 - 0.0 - - - - - - -
22/02:30pm 12.5 NNW 12 17 1004.4 - 0.0 - - - - - - -
22/02:00pm 12.9 NW 13 19 1004.7 - 0.0 - - - - - - -
22/01:30pm 12.5 NNW 11 17 1005.1 - 0.0 - - - - - - -
22/01:00pm 10.8 N 7 11 1005.6 - 0.0 - - - - - - -
22/12:30pm 10.6 NNE 7 9 1006.2 - 0.0 - - - - - - -
22/12:00pm 9.9 NE 9 12 1006.9 - 0.0 - - - - - - -
22/11:30am 9.7 NE 10 15 1007.8 - 0.0 - - - - - - -
22/11:00am 9.2 NNE 9 14 1008.8 - 0.0 - - - - - - -
22/10:30am 8.7 N 14 21 1008.8 - 0.0 - - - - - - -
22/10:00am 8.7 N 15 19 1009.2 - 0.0 - - - - - - -
22/09:30am 8.6 NNW 13 16 1009.6 - 0.0 - - - - - - -
22/09:00am 9.3 NNW 14 19 1010.1 - 0.2 - - - - - - -
22/08:30am 8.4 NNW 12 16 1010.3 - 0.2 - - - - - - -
22/08:00am 7.5 N 10 14 1010.4 - 0.2 - - - - - - -
22/07:30am 7.4 N 11 15 1010.8 - 0.2 - - - - - - -
22/07:00am 7.3 N 11 14 1011.1 - 0.2 - - - - - - -
22/06:30am 7.1 N 13 17 1011.3 - 0.2 - - - - - - -
22/06:00am 6.5 NNE 9 12 1011.5 - 0.2 - - - - - - -
22/05:30am 6.6 N 12 17 1011.8 - 0.2 - - - - - - -

Other Formats:

Comma delimited format used in spreadsheet applications
http://www.bom.gov.au/fwo/IDT60701/IDT60701.95967.axf

JavaScript Object Notation format (JSON) in row-major order
http://www.bom.gov.au/fwo/IDT60701/IDT60701.95967.json